createdAt,value
2023-02-04T00:00:10.004Z,1.20
2023-02-04T00:01:14.451Z,1.19
2023-02-04T00:02:17.542Z,1.20
2023-02-04T00:03:19.998Z,1.12
2023-02-04T00:04:26.709Z,1.07
2023-02-04T00:05:29.469Z,1.08
2023-02-04T00:06:32.754Z,1.10
2023-02-04T00:07:35.480Z,1.08
2023-02-04T00:08:38.586Z,1.10
2023-02-04T00:09:42.520Z,1.07
2023-02-04T00:10:45.845Z,1.09
2023-02-04T00:11:49.119Z,1.07
2023-02-04T00:12:52.338Z,1.00
2023-02-04T00:13:55.404Z,0.93
2023-02-04T00:14:59.641Z,0.95
2023-02-04T00:16:03.028Z,0.93
2023-02-04T00:17:08.201Z,0.90
2023-02-04T00:18:11.689Z,0.88
2023-02-04T00:19:14.980Z,0.84
2023-02-04T00:20:19.032Z,0.83
2023-02-04T00:21:22.132Z,0.78
2023-02-04T00:22:27.293Z,0.77
2023-02-04T00:23:30.610Z,0.72
2023-02-04T00:24:34.451Z,0.68
2023-02-04T00:25:36.913Z,0.64
2023-02-04T00:26:41.901Z,0.64
2023-02-04T00:27:44.489Z,0.64
2023-02-04T00:28:47.002Z,0.64
2023-02-04T00:29:50.400Z,0.64
2023-02-04T00:30:53.751Z,0.64
2023-02-04T00:31:59.057Z,0.58
2023-02-04T00:33:03.668Z,0.59
2023-02-04T00:34:07.762Z,0.58
2023-02-04T00:35:14.151Z,0.55
2023-02-04T00:36:18.872Z,0.52
2023-02-04T00:37:21.914Z,0.48
2023-02-04T00:38:25.352Z,0.44
2023-02-04T00:39:31.288Z,0.32
2023-02-04T00:40:34.376Z,0.38
2023-02-04T00:41:39.975Z,0.41
2023-02-04T00:42:44.207Z,0.44
2023-02-04T00:43:46.679Z,0.50
2023-02-04T00:44:51.242Z,0.53
2023-02-04T00:45:54.303Z,0.53
2023-02-04T00:46:58.722Z,0.55
2023-02-04T00:48:01.902Z,0.51
2023-02-04T00:49:08.067Z,0.54
2023-02-04T00:50:11.395Z,0.53
2023-02-04T00:51:15.653Z,0.58
2023-02-04T00:52:19.873Z,0.56
2023-02-04T00:53:24.559Z,0.59
2023-02-04T00:54:27.855Z,0.60
2023-02-04T00:55:31.070Z,0.55
2023-02-04T00:56:35.312Z,0.53
2023-02-04T00:57:40.461Z,0.54
2023-02-04T00:58:43.617Z,0.51
2023-02-04T00:59:47.419Z,0.55
2023-02-04T01:00:51.464Z,0.56
2023-02-04T01:01:54.716Z,0.56
2023-02-04T01:02:58.747Z,0.53
2023-02-04T01:04:04.798Z,0.54
2023-02-04T01:05:09.017Z,0.54
2023-02-04T01:06:12.702Z,0.57
2023-02-04T01:07:15.119Z,0.59
2023-02-04T01:08:17.607Z,0.63
2023-02-04T01:09:19.788Z,0.67
2023-02-04T01:10:23.146Z,0.72
2023-02-04T01:11:25.708Z,0.76
2023-02-04T01:12:31.231Z,0.73
2023-02-04T01:13:34.485Z,0.73
2023-02-04T08:16:16.673Z,1.97
2023-02-04T08:17:20.604Z,2.16
2023-02-04T08:18:25.823Z,2.22
2023-02-04T08:19:29.134Z,2.19
2023-02-04T08:20:32.836Z,2.21
2023-02-04T08:21:37.057Z,2.26
2023-02-04T08:22:40.742Z,2.23
2023-02-04T08:23:45.988Z,2.23
2023-02-04T08:24:49.029Z,2.48
2023-02-04T08:25:52.082Z,2.60
2023-02-04T08:26:55.424Z,2.61
2023-02-04T08:27:58.449Z,2.44
2023-02-04T08:29:01.869Z,2.47
2023-02-04T08:30:05.159Z,2.38
2023-02-04T08:31:10.409Z,2.66
2023-02-04T08:32:17.748Z,2.89
2023-02-04T08:33:21.980Z,2.74
2023-02-04T08:34:25.005Z,2.76
2023-02-04T08:35:28.422Z,2.48
2023-02-04T08:36:30.814Z,2.23
2023-02-04T08:37:33.558Z,2.30
2023-02-04T08:38:35.855Z,2.33
2023-02-04T08:39:39.674Z,2.40
2023-02-04T08:40:45.015Z,2.04
2023-02-04T08:41:50.447Z,2.10
2023-02-04T08:42:54.141Z,2.04
2023-02-04T08:43:57.005Z,2.18
2023-02-04T08:45:00.251Z,2.36
2023-02-04T08:46:03.197Z,2.42
2023-02-04T08:47:08.226Z,2.30
2023-02-04T08:48:11.481Z,2.34
2023-02-04T08:49:15.590Z,2.38
2023-02-04T08:50:18.871Z,2.30
2023-02-04T08:51:21.872Z,2.28
2023-02-04T08:52:25.158Z,2.34
2023-02-04T08:53:27.718Z,2.24
2023-02-04T08:54:30.257Z,2.37
2023-02-04T08:55:33.333Z,2.48
2023-02-04T08:56:37.958Z,2.51
2023-02-04T08:57:41.490Z,2.42
2023-02-04T08:58:45.600Z,2.27
2023-02-04T08:59:51.764Z,2.44
2023-02-04T09:00:53.975Z,2.42
2023-02-04T09:01:57.375Z,2.35
2023-02-04T09:03:02.931Z,2.31
2023-02-04T09:04:09.254Z,2.09
2023-02-04T09:05:11.500Z,1.93
2023-02-04T09:06:14.660Z,1.82
2023-02-04T09:07:18.004Z,1.95
2023-02-04T09:08:21.126Z,1.87
2023-02-04T09:09:26.435Z,1.94
2023-02-04T09:10:30.298Z,2.19
2023-02-04T09:11:32.730Z,2.06
2023-02-04T09:12:35.213Z,2.07
2023-02-04T09:13:40.434Z,1.73
2023-02-04T09:14:44.700Z,1.80
2023-02-04T09:15:47.804Z,1.76
2023-02-04T09:16:52.547Z,1.80
2023-02-04T09:18:04.546Z,2.10
2023-02-04T09:19:10.453Z,2.18
2023-02-04T09:20:14.399Z,2.25
2023-02-04T09:21:19.380Z,2.19
2023-02-04T09:22:22.880Z,1.93
2023-02-04T09:23:26.139Z,2.06
2023-02-04T09:24:30.302Z,2.06
2023-02-04T09:25:33.613Z,1.95
2023-02-04T09:26:35.737Z,1.80
2023-02-04T09:27:39.641Z,1.89
2023-02-04T09:29:46.847Z,2.26
2023-02-04T09:30:49.138Z,2.43
2023-02-04T09:31:51.809Z,2.48
2023-02-04T09:32:56.552Z,2.57
2023-02-04T09:34:00.156Z,2.61
2023-02-04T09:35:03.252Z,2.56
2023-02-04T09:36:05.775Z,2.36
2023-02-04T09:37:10.647Z,2.42
2023-02-04T09:38:13.957Z,2.50
2023-02-04T09:39:17.176Z,2.39
2023-02-04T09:40:21.139Z,2.43
2023-02-04T09:41:24.719Z,2.46
2023-02-04T09:42:31.077Z,2.48
2023-02-04T09:43:36.206Z,2.53
2023-02-04T09:44:39.640Z,2.42
2023-02-04T09:45:43.298Z,2.32
2023-02-04T09:46:51.008Z,2.37
2023-02-04T09:47:56.487Z,2.20
2023-02-04T09:49:02.849Z,2.18
2023-02-04T09:50:06.395Z,2.27
2023-02-04T09:51:10.686Z,2.48
2023-02-04T09:52:16.790Z,2.52
2023-02-04T09:53:29.344Z,2.39
2023-02-04T09:54:32.686Z,2.33
2023-02-04T09:55:37.132Z,2.18
2023-02-04T09:56:40.903Z,2.07
2023-02-04T09:57:44.129Z,2.11
2023-02-04T09:58:47.594Z,2.13
2023-02-04T09:59:52.106Z,2.13
2023-02-04T10:01:14.892Z,2.22
2023-02-04T10:02:20.225Z,2.50
2023-02-04T10:03:22.803Z,2.46
2023-02-04T10:04:27.233Z,2.34
2023-02-04T10:05:31.748Z,2.30
2023-02-04T10:06:35.078Z,2.34
2023-02-04T10:07:38.228Z,2.49
2023-02-04T10:08:40.754Z,2.45
2023-02-04T10:09:44.130Z,2.25
2023-02-04T10:10:48.874Z,2.28
2023-02-04T10:11:53.832Z,2.28
2023-02-04T10:12:58.926Z,2.34
2023-02-04T10:14:02.212Z,2.25
2023-02-04T10:15:08.479Z,2.22
2023-02-04T10:16:17.437Z,2.48
2023-02-04T10:17:24.480Z,2.56
2023-02-04T10:18:29.623Z,2.65
2023-02-04T10:19:34.702Z,2.83
2023-02-04T10:20:37.923Z,2.87
2023-02-04T10:21:42.488Z,3.17
2023-02-04T10:22:45.141Z,2.93
2023-02-04T10:23:50.171Z,3.24
2023-02-04T10:24:53.357Z,3.31
2023-02-04T10:25:55.659Z,3.53
2023-02-04T10:27:03.749Z,3.58
2023-02-04T10:28:06.952Z,3.48
2023-02-04T10:29:17.344Z,3.40
2023-02-04T10:30:22.192Z,3.11
2023-02-04T10:31:38.430Z,3.35
2023-02-04T10:32:41.815Z,3.41
2023-02-04T10:33:44.238Z,3.08
2023-02-04T10:34:48.472Z,2.96
2023-02-04T10:35:52.977Z,2.85
2023-02-04T10:36:57.532Z,2.82
2023-02-04T10:38:04.316Z,2.60
2023-02-04T10:39:11.876Z,2.40
2023-02-04T13:35:43.078Z,1.21
2023-02-04T13:36:46.572Z,1.34
2023-02-04T13:37:49.732Z,0.97
2023-02-04T13:38:52.929Z,0.95
2023-02-04T13:39:55.573Z,0.99
2023-02-04T13:40:58.640Z,1.00
2023-02-04T13:42:04.216Z,1.13
2023-02-04T13:43:08.906Z,0.97
2023-02-04T13:44:12.325Z,0.92
2023-02-04T13:45:16.605Z,1.06
2023-02-04T13:46:20.115Z,0.94
2023-02-04T13:47:25.208Z,0.84
2023-02-04T13:48:28.291Z,0.76
2023-02-04T13:49:30.729Z,0.86
2023-02-04T13:50:34.005Z,0.98
2023-02-04T13:53:02.659Z,0.95
2023-02-04T13:54:05.295Z,0.94
2023-02-04T13:55:09.086Z,0.82
2023-02-04T13:56:15.207Z,0.60
2023-02-04T13:57:17.396Z,0.69
2023-02-04T13:58:20.477Z,0.99
2023-02-04T13:59:23.708Z,0.59
2023-02-04T14:00:26.943Z,0.46
2023-02-04T14:01:30.462Z,0.31
2023-02-04T14:02:33.957Z,0.51
2023-02-04T14:03:36.542Z,0.50
2023-02-04T14:04:38.843Z,0.28
2023-02-04T14:05:41.277Z,0.30
2023-02-04T14:06:44.517Z,0.31
2023-02-04T14:07:48.621Z,0.46
2023-02-04T14:08:51.874Z,0.32
2023-02-04T14:09:57.148Z,0.52
2023-02-04T14:11:03.153Z,0.62
2023-02-04T14:12:07.020Z,0.57
2023-02-04T14:13:10.472Z,0.52
2023-02-04T14:14:14.115Z,0.46
2023-02-04T14:15:17.366Z,0.43
2023-02-04T14:16:20.732Z,0.32
2023-02-04T14:17:26.542Z,0.44
2023-02-04T14:18:29.669Z,0.65
2023-02-04T14:19:33.762Z,0.63
2023-02-04T14:20:37.125Z,0.56
2023-02-04T14:21:40.933Z,0.33
2023-02-04T14:22:43.224Z,0.40
2023-02-04T14:23:46.586Z,0.49
2023-02-04T14:24:50.820Z,0.51
2023-02-04T14:25:54.243Z,0.45
2023-02-04T14:26:59.560Z,0.53
2023-02-04T14:28:05.879Z,0.62
2023-02-04T14:29:10.579Z,0.49
2023-02-04T14:30:21.648Z,0.20
2023-02-04T14:31:24.848Z,0.25
2023-02-04T14:32:27.436Z,0.40
2023-02-04T14:33:30.491Z,0.33
2023-02-04T14:34:35.607Z,0.26
2023-02-04T14:35:38.819Z,0.13
2023-02-04T14:36:45.565Z,0.15
2023-02-04T14:37:48.749Z,0.09
2023-02-04T14:38:51.914Z,-0.11
2023-02-04T14:39:54.164Z,-0.10
2023-02-04T14:41:00.798Z,-0.04
2023-02-04T14:42:06.964Z,0.06
2023-02-04T14:43:12.493Z,0.16
2023-02-04T14:44:16.749Z,0.09
2023-02-04T14:45:20.740Z,0.02
2023-02-04T14:46:23.329Z,0.07
2023-02-04T14:47:26.470Z,-0.07
2023-02-04T14:48:29.641Z,-0.07
2023-02-04T14:49:33.426Z,-0.14
2023-02-04T14:50:37.805Z,-0.07
2023-02-04T14:51:40.998Z,-0.23
2023-02-04T14:52:43.258Z,-0.38
2023-02-04T14:53:48.608Z,-0.34
2023-02-04T14:54:51.936Z,-0.22
2023-02-04T14:55:54.610Z,-0.11
2023-02-04T14:56:57.886Z,-0.09
2023-02-04T14:58:00.954Z,-0.08
2023-02-04T14:59:04.248Z,-0.23
2023-02-04T15:00:08.728Z,-0.28
2023-02-04T15:01:12.133Z,-0.22
2023-02-04T15:02:17.901Z,-0.25
2023-02-04T15:03:21.080Z,-0.32
2023-02-04T15:04:25.245Z,-0.31
2023-02-04T15:05:30.371Z,-0.44
2023-02-04T15:06:34.902Z,-0.23
2023-02-04T15:07:37.661Z,-0.12
2023-02-04T15:08:40.768Z,0.05
2023-02-04T15:09:46.167Z,0.02
2023-02-04T15:10:50.789Z,-0.14
2023-02-04T15:11:53.340Z,-0.26
2023-02-04T15:12:56.041Z,-0.10
2023-02-04T15:14:00.310Z,-0.33
2023-02-04T15:15:03.407Z,-0.45
2023-02-04T15:16:06.701Z,-0.68
2023-02-04T15:17:11.937Z,-0.75
2023-02-04T15:18:15.061Z,-0.59
2023-02-04T15:19:18.842Z,-0.39
2023-02-04T15:20:21.833Z,-0.25
2023-02-04T15:21:27.811Z,-0.23
2023-02-04T15:22:32.141Z,-0.47
2023-02-04T15:23:34.976Z,-0.54
2023-02-04T15:24:39.466Z,-0.58
2023-02-04T15:27:04.722Z,-0.60
2023-02-04T15:28:10.909Z,-0.64
2023-02-04T15:29:13.510Z,-0.64
2023-02-04T15:31:38.688Z,-0.64
2023-02-04T15:32:44.734Z,-0.68
2023-02-04T15:33:48.056Z,-0.61
2023-02-04T15:34:53.974Z,-0.62
2023-02-04T15:35:57.016Z,-0.68
2023-02-04T15:37:02.896Z,-0.67
2023-02-04T15:38:06.179Z,-0.61
2023-02-04T15:39:09.504Z,-0.62
2023-02-04T15:40:11.805Z,-0.84
2023-02-04T15:42:34.925Z,-0.84
2023-02-04T15:43:37.647Z,-0.86
2023-02-04T15:44:40.979Z,-0.79
2023-02-04T15:45:44.410Z,-0.83
2023-02-04T15:46:49.562Z,-0.86
2023-02-04T15:47:51.980Z,-0.77
2023-02-04T15:48:55.014Z,-0.89
2023-02-04T15:49:58.263Z,-0.63
2023-02-04T15:51:01.576Z,-0.52
2023-02-04T15:52:05.814Z,-0.72
2023-02-04T15:53:09.721Z,-0.65
2023-02-04T15:54:12.632Z,-0.73
2023-02-04T15:55:15.869Z,-0.69
2023-02-04T15:56:19.220Z,-0.56
2023-02-04T15:57:22.491Z,-0.64
2023-02-04T15:58:25.718Z,-0.67
2023-02-04T15:59:31.965Z,-0.72
2023-02-04T16:00:35.684Z,-0.51
2023-02-04T16:01:37.874Z,-0.67
2023-02-04T16:02:42.083Z,-0.51
2023-02-04T16:03:48.286Z,-0.53
2023-02-04T16:04:52.106Z,-0.69
2023-02-04T16:05:57.118Z,-0.76
2023-02-04T16:07:00.684Z,-0.61
2023-02-04T16:08:04.108Z,-0.53
2023-02-04T16:09:08.772Z,-0.56
2023-02-04T16:10:12.017Z,-0.56
2023-02-04T16:11:16.156Z,-0.51
2023-02-04T16:12:18.300Z,-0.57
2023-02-04T16:13:21.557Z,-0.30
2023-02-04T16:14:24.668Z,-0.18
2023-02-04T16:15:27.818Z,-0.29
2023-02-04T16:16:30.759Z,-0.34
2023-02-04T16:17:34.176Z,-0.20
2023-02-04T16:18:37.487Z,-0.23
2023-02-04T16:19:40.804Z,-0.43
2023-02-04T16:20:44.981Z,-0.39
2023-02-04T16:21:48.538Z,-0.33
2023-02-04T16:22:51.846Z,-0.31
2023-02-04T16:23:54.285Z,-0.10
2023-02-04T16:24:57.803Z,-0.15
2023-02-04T16:26:02.029Z,-0.17
2023-02-04T16:27:05.212Z,-0.12
2023-02-04T16:28:07.492Z,-0.24
2023-02-04T16:29:10.805Z,-0.21
2023-02-04T16:30:14.634Z,-0.42
2023-02-04T16:31:18.056Z,-0.54
2023-02-04T16:32:21.520Z,-0.71
2023-02-04T16:33:26.891Z,-0.45
2023-02-04T16:34:30.069Z,-0.41
2023-02-04T16:35:35.952Z,-0.49
2023-02-04T16:36:39.481Z,-0.65
2023-02-04T16:37:43.660Z,-0.73
2023-02-04T16:38:47.212Z,-0.54
2023-02-04T16:39:53.078Z,-0.52
2023-02-04T16:40:56.527Z,-0.62
2023-02-04T16:42:00.254Z,-0.59
2023-02-04T16:43:03.588Z,-0.61
2023-02-04T16:44:06.723Z,-0.57
2023-02-04T16:45:09.330Z,-0.84
2023-02-04T16:46:14.490Z,-0.57
2023-02-04T16:47:17.689Z,-0.55
2023-02-04T16:48:20.484Z,-0.67
2023-02-04T16:49:23.220Z,-0.59
2023-02-04T16:50:29.032Z,-0.76
2023-02-04T16:51:32.088Z,-0.72
2023-02-04T16:52:35.849Z,-0.67
2023-02-04T16:53:38.292Z,-0.81
2023-02-04T16:54:42.860Z,-0.88
2023-02-04T16:55:48.077Z,-0.92
2023-02-04T16:56:52.086Z,-0.80
2023-02-04T16:57:56.676Z,-0.82
2023-02-04T16:59:01.606Z,-0.78
2023-02-04T17:00:04.605Z,-0.82
2023-02-04T17:01:07.922Z,-0.75
2023-02-04T17:02:10.571Z,-0.85
2023-02-04T17:03:13.280Z,-0.89
2023-02-04T17:04:16.452Z,-0.87
2023-02-04T17:05:18.917Z,-0.89
2023-02-04T17:06:23.056Z,-1.07
2023-02-04T17:07:25.777Z,-1.05
2023-02-04T17:08:30.914Z,-0.95
2023-02-04T17:09:33.893Z,-0.88
2023-02-04T17:10:55.223Z,-0.90
2023-02-04T17:11:58.719Z,-0.61
2023-02-04T17:13:01.961Z,-0.40
2023-02-04T17:14:06.373Z,-0.37
2023-02-04T17:15:09.762Z,-0.26
2023-02-04T17:16:13.941Z,-0.45
2023-02-04T17:17:19.989Z,-0.55
2023-02-04T17:18:23.368Z,-0.65
2023-02-04T17:19:25.870Z,-0.58
2023-02-04T17:20:30.022Z,-0.53
2023-02-04T17:21:33.351Z,-0.60
2023-02-04T17:22:36.488Z,-0.66
2023-02-04T17:23:41.829Z,-0.62
2023-02-04T17:24:45.018Z,-0.37
2023-02-04T17:25:51.911Z,-0.23
2023-02-04T17:26:55.149Z,-0.27
2023-02-04T17:27:58.411Z,-0.46
2023-02-04T17:29:01.814Z,-0.44
2023-02-04T17:30:05.299Z,-0.69
2023-02-04T17:31:08.713Z,-0.54
2023-02-04T17:32:14.078Z,-0.86
2023-02-04T17:33:18.301Z,-0.86
2023-02-04T17:34:21.478Z,-0.77
2023-02-04T17:35:23.680Z,-0.85
2023-02-04T17:36:28.197Z,-0.84
2023-02-04T17:37:33.353Z,-0.90
2023-02-04T17:38:39.079Z,-0.76
2023-02-04T17:39:41.680Z,-0.96
2023-02-04T17:40:45.095Z,-0.86
2023-02-04T17:41:48.273Z,-0.76
2023-02-04T17:42:51.576Z,-0.74
2023-02-04T17:43:55.880Z,-0.49
2023-02-04T17:44:58.932Z,-0.52
2023-02-04T17:46:02.073Z,-0.72
2023-02-04T17:47:04.564Z,-0.82
2023-02-04T17:48:08.343Z,-0.69
2023-02-04T17:49:11.076Z,-0.56
2023-02-04T17:50:14.635Z,-0.63
2023-02-04T17:51:17.592Z,-0.55
2023-02-04T17:52:20.231Z,-0.62
2023-02-04T17:53:26.590Z,-0.69
2023-02-04T17:54:28.966Z,-0.70
2023-02-04T17:55:33.055Z,-0.57
2023-02-04T17:56:36.499Z,-0.62
2023-02-04T17:57:39.992Z,-0.65
2023-02-04T17:58:43.741Z,-0.51
2023-02-04T17:59:47.500Z,-0.48
2023-02-04T18:00:51.004Z,-0.45
2023-02-04T18:01:53.950Z,-0.55
2023-02-04T18:02:59.272Z,-0.55
2023-02-04T18:04:05.216Z,-0.87
2023-02-04T18:05:10.386Z,-0.89
2023-02-04T18:06:25.548Z,-0.87
2023-02-04T18:07:29.087Z,-1.04
2023-02-04T18:08:39.746Z,-1.01
2023-02-04T18:09:43.092Z,-0.84
2023-02-04T18:10:47.313Z,-0.68
2023-02-04T18:11:50.516Z,-0.66
2023-02-04T18:12:55.280Z,-0.65
2023-02-04T18:14:00.327Z,-0.83
2023-02-04T18:15:05.326Z,-0.87
2023-02-04T18:16:17.150Z,-0.82
2023-02-04T18:17:21.290Z,-0.74
2023-02-04T18:18:26.169Z,-0.89
2023-02-04T18:19:31.753Z,-0.75
2023-02-04T18:20:35.996Z,-0.78
2023-02-04T18:21:39.507Z,-0.82
2023-02-04T18:22:42.562Z,-0.75
2023-02-04T18:23:46.412Z,-0.79
2023-02-04T18:24:49.656Z,-0.72
2023-02-04T18:25:52.512Z,-0.66
2023-02-04T18:26:56.481Z,-0.78
2023-02-04T18:28:00.943Z,-0.78
2023-02-04T18:29:06.890Z,-0.78
2023-02-04T18:30:12.199Z,-0.90
2023-02-04T18:31:37.269Z,-0.88
2023-02-04T18:32:40.930Z,-0.82
2023-02-04T18:33:45.415Z,-0.81
2023-02-04T18:34:50.415Z,-0.82
2023-02-04T18:35:56.737Z,-0.65
2023-02-04T18:37:00.988Z,-0.67
2023-02-04T18:38:07.016Z,-0.77
2023-02-04T18:39:15.314Z,-0.75
2023-02-04T18:40:27.756Z,-0.76
2023-02-04T18:41:34.284Z,-0.92
2023-02-04T18:42:41.803Z,-0.86
2023-02-04T18:43:48.628Z,-0.86
2023-02-04T18:44:52.055Z,-1.00
2023-02-04T18:45:59.911Z,-0.94
2023-02-04T18:47:04.257Z,-0.97
2023-02-04T18:48:18.474Z,-0.81
2023-02-04T18:49:25.531Z,-0.73
2023-02-04T18:50:32.982Z,-0.98
2023-02-04T18:51:41.612Z,-1.08
2023-02-04T18:52:44.842Z,-1.30
2023-02-04T18:53:49.003Z,-1.27
2023-02-04T18:54:52.900Z,-1.24
2023-02-04T18:55:58.087Z,-1.55
2023-02-04T18:57:02.618Z,-1.42
2023-02-04T18:58:24.403Z,-1.48
2023-02-04T18:59:27.676Z,-1.25
2023-02-04T19:00:32.380Z,-1.09
2023-02-04T19:01:39.802Z,-1.20
2023-02-04T19:02:44.774Z,-1.18
2023-02-04T19:03:53.123Z,-1.22
2023-02-04T19:05:12.758Z,-1.27
2023-02-04T19:06:04.444Z,-1.32
2023-02-04T19:07:08.771Z,-1.25
2023-02-04T19:08:21.066Z,-1.07
2023-02-04T19:09:31.014Z,-1.19
2023-02-04T19:10:38.897Z,-1.34
2023-02-04T19:11:44.054Z,-1.52
2023-02-04T19:12:47.256Z,-1.66
2023-02-04T19:13:52.942Z,-1.56
2023-02-04T19:14:56.263Z,-1.47
2023-02-04T19:16:06.229Z,-1.48
2023-02-04T19:17:19.513Z,-1.43
2023-02-04T19:18:24.600Z,-1.31
2023-02-04T19:19:30.713Z,-1.21
2023-02-04T19:20:33.980Z,-1.45
2023-02-04T19:21:37.034Z,-1.52
2023-02-04T19:22:47.195Z,-1.39
2023-02-04T19:23:51.323Z,-1.40
2023-02-04T19:24:59.564Z,-1.20
2023-02-04T19:26:02.042Z,-1.24
2023-02-04T19:27:06.141Z,-1.34
2023-02-04T19:28:28.572Z,-1.45
2023-02-04T19:29:33.493Z,-1.46
2023-02-04T19:30:46.332Z,-1.61
2023-02-04T19:31:49.259Z,-1.46
2023-02-04T19:32:58.229Z,-1.60
2023-02-04T19:34:03.172Z,-1.60
2023-02-04T19:35:17.218Z,-1.55
2023-02-04T19:36:34.481Z,-1.51
2023-02-04T19:37:41.702Z,-1.43
2023-02-04T19:38:48.485Z,-1.52
2023-02-04T19:39:53.340Z,-1.57
2023-02-04T19:40:56.370Z,-1.61
2023-02-04T19:42:01.723Z,-1.65
2023-02-04T19:43:17.985Z,-1.52
2023-02-04T19:44:22.611Z,-1.52
2023-02-04T19:45:28.988Z,-1.60
2023-02-04T19:46:35.099Z,-1.63
2023-02-04T19:47:43.984Z,-1.73
2023-02-04T19:48:47.641Z,-1.78
2023-02-04T19:49:53.461Z,-1.55
2023-02-04T19:50:56.700Z,-1.53
2023-02-04T19:51:58.931Z,-1.49
2023-02-04T19:53:03.656Z,-1.46
2023-02-04T19:54:08.713Z,-1.53
2023-02-04T19:55:19.127Z,-1.46
2023-02-04T19:56:28.972Z,-1.40
2023-02-04T19:57:33.913Z,-1.51
2023-02-04T19:58:41.176Z,-1.42
2023-02-04T19:59:44.219Z,-1.47
2023-02-04T20:00:48.588Z,-1.68
2023-02-04T20:01:58.549Z,-1.81
2023-02-04T20:03:06.490Z,-1.87
2023-02-04T20:04:12.619Z,-1.73
2023-02-04T20:05:19.628Z,-1.67
2023-02-04T20:06:28.082Z,-1.54
2023-02-04T20:07:33.560Z,-1.70
2023-02-04T20:08:43.438Z,-1.66
2023-02-04T20:09:47.477Z,-1.64
2023-02-04T20:10:50.572Z,-1.52
2023-02-04T20:11:55.662Z,-1.56
2023-02-04T20:13:00.578Z,-1.79
2023-02-04T20:14:13.659Z,-1.49
2023-02-04T20:15:17.783Z,-1.47
2023-02-04T20:16:24.440Z,-1.77
2023-02-04T20:17:29.340Z,-2.00
2023-02-04T20:18:32.876Z,-1.96
2023-02-04T20:19:38.985Z,-1.93
2023-02-04T20:20:44.510Z,-1.83
2023-02-04T20:21:49.122Z,-1.95
2023-02-04T20:22:53.366Z,-1.96
2023-02-04T20:23:56.011Z,-2.02
2023-02-04T20:25:03.732Z,-2.05
2023-02-04T20:26:07.975Z,-1.99
2023-02-04T20:27:19.619Z,-1.97
2023-02-04T20:28:28.535Z,-1.74
2023-02-04T20:29:32.731Z,-1.74
2023-02-04T20:30:34.899Z,-1.94
2023-02-04T20:31:40.404Z,-1.97
2023-02-04T20:32:45.566Z,-2.05
2023-02-04T20:33:48.925Z,-1.97
2023-02-04T20:34:55.654Z,-1.95
2023-02-04T20:36:18.991Z,-1.93
2023-02-04T20:37:28.639Z,-1.78
2023-02-04T20:38:31.703Z,-1.80
2023-02-04T20:40:50.185Z,-2.04
2023-02-04T20:41:53.468Z,-2.10
2023-02-04T20:43:00.386Z,-2.02
2023-02-04T20:44:14.584Z,-2.18
2023-02-04T20:45:20.610Z,-2.15
2023-02-04T20:46:28.246Z,-2.20
2023-02-04T20:47:36.063Z,-2.19
2023-02-04T20:48:39.569Z,-2.37
2023-02-04T20:49:46.834Z,-2.22
2023-02-04T20:50:53.473Z,-2.16
2023-02-04T20:51:59.584Z,-2.23
2023-02-04T20:53:03.827Z,-2.17
2023-02-04T20:54:11.922Z,-2.13
2023-02-04T20:55:25.493Z,-2.14
2023-02-04T20:56:34.458Z,-2.10
2023-02-04T20:57:37.793Z,-2.25
2023-02-04T20:58:43.909Z,-2.14
2023-02-04T20:59:49.186Z,-2.30
2023-02-04T21:00:54.369Z,-2.18
2023-02-04T21:01:56.832Z,-2.09
2023-02-04T21:03:04.289Z,-2.13
2023-02-04T21:04:23.912Z,-2.14
2023-02-04T21:05:26.774Z,-2.13
2023-02-04T21:06:32.364Z,-2.34
2023-02-04T21:07:35.544Z,-2.36
2023-02-04T21:08:43.439Z,-2.25
2023-02-04T21:09:56.268Z,-2.30
2023-02-04T21:10:59.964Z,-2.35
2023-02-04T21:12:02.944Z,-2.44
2023-02-04T21:13:05.938Z,-2.44
2023-02-04T21:14:12.769Z,-2.20
2023-02-04T21:15:17.329Z,-2.26
2023-02-04T21:16:21.341Z,-2.32
2023-02-04T21:17:25.493Z,-2.27
2023-02-04T21:18:29.539Z,-2.38
2023-02-04T21:19:33.437Z,-2.35
2023-02-04T21:20:36.615Z,-2.33
2023-02-04T21:21:43.147Z,-2.36
2023-02-04T21:22:48.335Z,-2.46
2023-02-04T21:23:52.051Z,-2.21
2023-02-04T21:24:54.812Z,-2.24
2023-02-04T21:25:57.169Z,-2.20
2023-02-04T21:27:00.695Z,-2.17
2023-02-04T21:28:05.005Z,-2.47
2023-02-04T21:29:08.026Z,-2.27
2023-02-04T21:30:12.232Z,-2.21
2023-02-04T21:31:16.454Z,-2.02
2023-02-04T21:32:19.727Z,-1.98
2023-02-04T21:33:23.072Z,-2.05
2023-02-04T21:34:25.310Z,-2.25
2023-02-04T21:35:33.040Z,-2.42
2023-02-04T21:36:36.829Z,-2.54
2023-02-04T21:37:39.083Z,-2.65
2023-02-04T21:38:42.360Z,-2.62
2023-02-04T21:39:46.712Z,-2.57
2023-02-04T21:40:50.306Z,-2.46
2023-02-04T21:41:54.980Z,-2.32
2023-02-04T21:42:59.135Z,-2.27
2023-02-04T21:44:02.613Z,-2.34
2023-02-04T21:45:05.632Z,-2.45
2023-02-04T21:46:08.277Z,-2.55
2023-02-04T21:47:12.814Z,-2.52
2023-02-04T21:48:15.957Z,-2.51
2023-02-04T21:49:18.469Z,-2.54
2023-02-04T21:50:21.974Z,-2.50
2023-02-04T21:51:29.892Z,-2.52
2023-02-04T21:52:33.262Z,-2.45
2023-02-04T21:53:37.607Z,-2.66
2023-02-04T21:54:41.054Z,-2.69
2023-02-04T21:55:47.434Z,-2.78
2023-02-04T21:56:51.032Z,-2.62
2023-02-04T21:57:54.223Z,-2.57
2023-02-04T21:58:58.786Z,-2.77
2023-02-04T22:00:01.551Z,-2.68
2023-02-04T22:01:05.144Z,-2.60
2023-02-04T22:02:08.557Z,-2.59
2023-02-04T22:03:12.944Z,-2.63
2023-02-04T22:04:16.417Z,-2.92
2023-02-04T22:05:19.598Z,-2.98
2023-02-04T22:06:22.853Z,-2.69
2023-02-04T22:07:25.345Z,-2.75
2023-02-04T22:08:29.911Z,-2.84
2023-02-04T22:09:32.267Z,-2.75
2023-02-04T22:10:35.493Z,-2.74
2023-02-04T22:11:38.689Z,-2.57
2023-02-04T22:12:42.043Z,-2.67
2023-02-04T22:13:47.867Z,-2.64
2023-02-04T22:15:10.892Z,-2.87
2023-02-04T22:16:15.679Z,-2.70
2023-02-04T22:17:19.364Z,-2.58
2023-02-04T22:18:21.607Z,-2.67
2023-02-04T22:19:26.258Z,-2.91
2023-02-04T22:20:29.785Z,-2.92
2023-02-04T22:21:35.872Z,-2.76
2023-02-04T22:22:39.285Z,-2.69
2023-02-04T22:23:42.691Z,-2.61
2023-02-04T22:24:47.926Z,-2.64
2023-02-04T22:25:53.241Z,-2.71
2023-02-04T22:26:57.401Z,-2.74
2023-02-04T22:28:01.752Z,-2.87
2023-02-04T22:29:05.020Z,-2.78
2023-02-04T22:30:09.394Z,-2.81
2023-02-04T22:31:13.465Z,-2.56
2023-02-04T22:32:16.606Z,-2.43
2023-02-04T22:33:19.462Z,-2.53
2023-02-04T22:34:24.242Z,-2.70
2023-02-04T22:35:30.599Z,-2.76
2023-02-04T22:36:34.040Z,-2.97
2023-02-04T22:37:39.957Z,-2.69
2023-02-04T22:38:45.019Z,-2.65
2023-02-04T22:39:49.788Z,-2.78
2023-02-04T22:40:55.015Z,-2.66
2023-02-04T22:41:58.471Z,-2.82
2023-02-04T22:43:01.862Z,-2.78
2023-02-04T22:44:05.156Z,-2.78
2023-02-04T22:45:09.728Z,-2.66
2023-02-04T22:46:13.283Z,-2.75
2023-02-04T22:47:16.936Z,-2.86
2023-02-04T22:48:20.220Z,-2.59
2023-02-04T22:49:25.689Z,-2.66
2023-02-04T22:50:28.286Z,-2.59
2023-02-04T22:51:31.688Z,-2.82
2023-02-04T22:52:35.081Z,-2.98
2023-02-04T22:53:38.268Z,-2.97
2023-02-04T22:54:43.236Z,-2.91
2023-02-04T22:55:46.543Z,-2.83
2023-02-04T22:56:50.036Z,-3.02
2023-02-04T22:57:53.348Z,-3.17
2023-02-04T22:58:57.466Z,-3.14
2023-02-04T23:00:01.211Z,-3.21
2023-02-04T23:01:04.651Z,-3.04
2023-02-04T23:02:08.655Z,-2.91
2023-02-04T23:03:12.215Z,-2.83
2023-02-04T23:04:14.788Z,-2.75
2023-02-04T23:05:20.269Z,-2.77
2023-02-04T23:06:24.964Z,-2.70
2023-02-04T23:07:28.110Z,-2.74
2023-02-04T23:08:31.406Z,-2.79
2023-02-04T23:09:36.820Z,-2.79
2023-02-04T23:10:40.060Z,-2.86
2023-02-04T23:11:43.463Z,-2.87
2023-02-04T23:12:45.845Z,-3.14
2023-02-04T23:13:50.615Z,-3.17
2023-02-04T23:14:54.980Z,-3.05
2023-02-04T23:15:58.619Z,-3.04
2023-02-04T23:17:00.921Z,-3.01
2023-02-04T23:18:04.553Z,-2.99
2023-02-04T23:19:08.135Z,-2.95
2023-02-04T23:20:12.956Z,-2.92
2023-02-04T23:21:16.398Z,-2.89
2023-02-04T23:22:19.901Z,-2.80
2023-02-04T23:23:25.287Z,-2.81
2023-02-04T23:24:29.198Z,-2.87
2023-02-04T23:25:33.416Z,-2.79
2023-02-04T23:26:36.208Z,-2.82
2023-02-04T23:27:39.618Z,-2.85
2023-02-04T23:28:45.994Z,-2.99
2023-02-04T23:29:49.024Z,-2.91
2023-02-04T23:30:52.341Z,-2.65
2023-02-04T23:31:55.826Z,-2.67
2023-02-04T23:32:59.240Z,-2.82
2023-02-04T23:34:02.351Z,-3.00
2023-02-04T23:35:07.099Z,-3.01
2023-02-04T23:36:10.864Z,-2.99
2023-02-04T23:37:14.038Z,-2.84
2023-02-04T23:38:17.699Z,-2.78
2023-02-04T23:39:20.465Z,-2.80
2023-02-04T23:40:24.403Z,-2.69
2023-02-04T23:41:28.872Z,-2.73
2023-02-04T23:42:32.489Z,-2.92
2023-02-04T23:43:35.007Z,-3.16
2023-02-04T23:44:38.094Z,-3.19
2023-02-04T23:45:42.665Z,-3.11
2023-02-04T23:46:46.374Z,-2.93
2023-02-04T23:47:50.919Z,-3.07
2023-02-04T23:48:55.466Z,-2.96
2023-02-04T23:49:58.973Z,-3.31
2023-02-04T23:51:02.479Z,-3.19
2023-02-04T23:52:07.018Z,-3.08
2023-02-04T23:53:10.957Z,-3.01
2023-02-04T23:54:14.465Z,-3.13
2023-02-04T23:55:18.643Z,-3.00
2023-02-04T23:56:22.860Z,-3.10
2023-02-04T23:57:27.803Z,-3.04
2023-02-04T23:58:31.397Z,-2.96
2023-02-04T23:59:35.840Z,-3.03
